ADDS METAR Data INFO
IDs: Format: Raw Decoded Include TAF

Data at: 0234 UTC 22 Jul 2017

KWRL 220153Z AUTO 02007KT 10SM CLR 29/06 A2995 RMK AO2 SLP097 T02890056
KWRL 220053Z AUTO 36007KT 10SM CLR 32/04 A2994 RMK AO2 SLP092 T03220039
KWRL 212353Z AUTO 02006KT 10SM CLR 33/05 A2995 RMK AO2 SLP098 T03330050 10339 20267 56015
KWRL 212253Z AUTO VRB03KT 10SM CLR 33/03 A2997 RMK AO2 SLP101 T03280033
KWRL 212153Z AUTO VRB04KT 10SM CLR 32/05 A2998 RMK AO2 SLP107 T03220050
KWRL 212053Z AUTO 29005KT 10SM CLR 32/07 A3000 RMK AO2 SLP113 T03170067 58019
KWRL 211953Z AUTO 33006KT 10SM CLR 31/09 A3003 RMK AO2 SLP122 T03060089
KWRL 211853Z AUTO 04006KT 10SM CLR 28/13 A3005 RMK AO2 SLP134 T02830128
KWRL 211753Z AUTO 00000KT 10SM CLR 27/13 A3006 RMK AO2 SLP141 T02670133 10272 20117 58004
KWRL 211653Z AUTO 00000KT 10SM CLR 24/12 A3007 RMK AO2 SLP142 T02440117
KWRL 211553Z AUTO 00000KT 10SM CLR 23/12 A3007 RMK AO2 SLP144 T02280117
KWRL 211453Z AUTO 00000KT 10SM CLR 20/14 A3008 RMK AO2 SLP148 T02000144 51020
KWRL 211353Z AUTO 21003KT 10SM CLR 17/14 A3005 RMK AO2 SLP143 T01670144
KWRL 211253Z AUTO 19005KT 10SM CLR 14/14 A3003 RMK AO2 SLP136 T01390139
KWRL 211153Z AUTO 00000KT 10SM CLR 12/12 A3001 RMK AO2 SLP126 70001 T01220122 10172 20117 53010
KWRL 211053Z AUTO 00000KT 10SM CLR 13/13 A2999 RMK AO2 SLP113 T01330128
KWRL 210953Z AUTO 19007KT 10SM CLR 14/13 A2997 RMK AO2 SLP098 T01440133
KWRL 210853Z AUTO 20005KT 10SM CLR 16/14 A2998 RMK AO2 SLP097 T01610139 51003
KWRL 210753Z AUTO 15007KT 10SM CLR 17/14 A2997 RMK AO2 SLP095 T01670139
KWRL 210653Z AUTO 12006KT 10SM CLR 15/14 A2997 RMK AO2 SLP099 T01500139 403940150
KWRL 210553Z AUTO 12007KT 10SM CLR 16/14 A2997 RMK AO2 SLP099 60001 T01560144 10267 20156 55008
KWRL 210453Z AUTO VRB04KT 10SM CLR 18/15 A2996 RMK AO2 SLP097 T01780150
KWRL 210353Z AUTO 15009KT 10SM CLR 19/15 A2996 RMK AO2 SLP101 T01940150
KWRL 210253Z AUTO 13014KT 10SM CLR 20/16 A3000 RMK AO2 SLP114 60001 T02000156 50003
KWRL 210153Z AUTO 12016KT 10SM SCT110 21/16 A3001 RMK AO2 RAE52 TSE05 SLP121 P0001 T02060161
KWRL 210111Z AUTO 10009KT 8SM -RA FEW070 BKN085 OVC100 22/16 A3005 RMK AO2 TSE05 P0001 T02170156
KWRL 210053Z AUTO 35005KT 10SM -TSRA OVC110 24/13 A3006 RMK AO2 PK WND 31042/2358 LTG DSNT E AND SE RAB42 TSB50 SLP132 P0000 T02390133
KWRL 202353Z AUTO 31026G40KT 10SM CLR 27/11 A2999 RMK AO2 PK WND 33042/2327 LTG DSNT ALQDS SLP110 T02670111 10394 20267 53033
KWRL 201553Z AUTO 26004KT 10SM CLR 28/14 A3004 RMK AO2 SLP117 T02780139
KWRL 201453Z AUTO 28005KT 10SM CLR 26/13 A3005 RMK AO2 SLP121 T02560133 53006